DAL2997 KATL-KSRQ
Flight info
| Callsign | DAL2997 |
|---|---|
| Flight time | 1h 5m |
| Altitude | 33000 |
| Route | BANNG3 LUCKK HONID BANGZ2 |
| Aircraft | B738/M-SDE2E3FGHIRWXY/LB1 |
Departure
| Time | 2026-05-04 01:17 |
|---|---|
| Airport | Hartsfield Jackson Atlanta International Airport (KATL) |
Arrival
| Time | 2026-05-04 02:23 |
|---|---|
| Airport | Sarasota Bradenton International Airport (KSRQ) |
| Time | Latitude | Longitude | Altitude | Speed | Heading |
|---|---|---|---|---|---|
| 2026-05-04 00:51 | 33.64133 | -84.43531 | 1023 ft | 0 kts | 270° |
| 2026-05-04 01:05 | 33.64133 | -84.43516 | 1023 ft | 2 kts | 270° |
| 2026-05-04 01:06 | 33.64133 | -84.43498 | 1023 ft | 1 kts | 270° |
| 2026-05-04 01:06 | 33.64133 | -84.43486 | 1023 ft | 2 kts | 260° |
| 2026-05-04 01:06 | 33.64140 | -84.43470 | 1023 ft | 2 kts | 226° |
| 2026-05-04 01:06 | 33.64153 | -84.43460 | 1023 ft | 2 kts | 196° |
| 2026-05-04 01:07 | 33.64161 | -84.43459 | 1023 ft | 1 kts | 179° |
| 2026-05-04 01:07 | 33.64167 | -84.43459 | 1023 ft | 0 kts | 179° |
| 2026-05-04 01:11 | 33.64159 | -84.43459 | 1023 ft | 5 kts | 180° |
| 2026-05-04 01:11 | 33.64067 | -84.43460 | 1023 ft | 16 kts | 181° |
| 2026-05-04 01:11 | 33.64022 | -84.43460 | 1023 ft | 12 kts | 180° |
| 2026-05-04 01:12 | 33.63878 | -84.43460 | 1023 ft | 25 kts | 181° |
| 2026-05-04 01:12 | 33.63724 | -84.43459 | 1023 ft | 18 kts | 173° |
| 2026-05-04 01:12 | 33.63662 | -84.43352 | 1023 ft | 17 kts | 89° |
| 2026-05-04 01:12 | 33.63663 | -84.43211 | 1023 ft | 16 kts | 90° |
| 2026-05-04 01:13 | 33.63664 | -84.43061 | 1023 ft | 18 kts | 90° |
| 2026-05-04 01:13 | 33.63663 | -84.42900 | 1023 ft | 20 kts | 91° |
| 2026-05-04 01:13 | 33.63659 | -84.42722 | 1023 ft | 23 kts | 92° |
| 2026-05-04 01:13 | 33.63657 | -84.42510 | 1023 ft | 25 kts | 91° |
| 2026-05-04 01:14 | 33.63656 | -84.42298 | 1023 ft | 25 kts | 90° |
| 2026-05-04 01:14 | 33.63656 | -84.42069 | 1020 ft | 29 kts | 90° |
| 2026-05-04 01:14 | 33.63657 | -84.41823 | 1020 ft | 29 kts | 90° |
| 2026-05-04 01:14 | 33.63654 | -84.41569 | 1021 ft | 30 kts | 90° |
| 2026-05-04 01:15 | 33.63655 | -84.41308 | 1013 ft | 32 kts | 90° |
| 2026-05-04 01:15 | 33.63656 | -84.41045 | 1008 ft | 27 kts | 90° |
| 2026-05-04 01:15 | 33.63617 | -84.40897 | 1005 ft | 14 kts | 160° |
| 2026-05-04 01:15 | 33.63519 | -84.40899 | 1005 ft | 13 kts | 188° |
| 2026-05-04 01:16 | 33.63471 | -84.40939 | 1005 ft | 7 kts | 261° |
| 2026-05-04 01:16 | 33.63470 | -84.41007 | 1005 ft | 11 kts | 270° |
| 2026-05-04 01:16 | 33.63469 | -84.41309 | 1007 ft | 68 kts | 270° |
| 2026-05-04 01:16 | 33.63467 | -84.42125 | 1011 ft | 125 kts | 270° |
| 2026-05-04 01:17 | 33.63468 | -84.43378 | 1025 ft | 171 kts | 271° |
| 2026-05-04 01:17 | 33.63486 | -84.44710 | 1837 ft | 150 kts | 272° |
| 2026-05-04 01:17 | 33.63485 | -84.46039 | 2162 ft | 169 kts | 270° |
| 2026-05-04 01:17 | 33.63469 | -84.47511 | 2626 ft | 181 kts | 271° |
| 2026-05-04 01:18 | 33.63466 | -84.49065 | 3004 ft | 193 kts | 272° |
| 2026-05-04 01:18 | 33.63469 | -84.50726 | 3338 ft | 208 kts | 272° |
| 2026-05-04 01:18 | 33.63472 | -84.52537 | 3663 ft | 226 kts | 272° |
| 2026-05-04 01:18 | 33.63472 | -84.54488 | 4093 ft | 240 kts | 271° |
| 2026-05-04 01:19 | 33.63471 | -84.56543 | 4551 ft | 253 kts | 271° |
| 2026-05-04 01:19 | 33.63470 | -84.58702 | 5052 ft | 263 kts | 271° |
| 2026-05-04 01:19 | 33.63469 | -84.60904 | 5689 ft | 267 kts | 271° |
| 2026-05-04 01:19 | 33.63392 | -84.63105 | 6356 ft | 271 kts | 264° |
| 2026-05-04 01:20 | 33.62808 | -84.65276 | 7044 ft | 276 kts | 241° |
| 2026-05-04 01:20 | 33.61524 | -84.67006 | 7711 ft | 283 kts | 219° |
| 2026-05-04 01:20 | 33.59849 | -84.68288 | 8376 ft | 289 kts | 212° |
| 2026-05-04 01:20 | 33.58019 | -84.69293 | 9039 ft | 295 kts | 198° |
| 2026-05-04 01:21 | 33.55957 | -84.69539 | 9708 ft | 302 kts | 176° |
| 2026-05-04 01:21 | 33.53862 | -84.69180 | 10441 ft | 305 kts | 171° |
| 2026-05-04 01:21 | 33.51762 | -84.68725 | 11161 ft | 309 kts | 171° |
| 2026-05-04 01:21 | 33.49641 | -84.68275 | 11859 ft | 312 kts | 172° |
| 2026-05-04 01:22 | 33.47490 | -84.67843 | 12595 ft | 315 kts | 172° |
| 2026-05-04 01:22 | 33.45339 | -84.67430 | 13328 ft | 317 kts | 173° |
| 2026-05-04 01:22 | 33.43156 | -84.67017 | 14040 ft | 320 kts | 172° |
| 2026-05-04 01:22 | 33.40988 | -84.66360 | 14723 ft | 326 kts | 162° |
| 2026-05-04 01:23 | 33.38830 | -84.65329 | 15133 ft | 341 kts | 157° |
| 2026-05-04 01:23 | 33.36641 | -84.64104 | 15519 ft | 356 kts | 155° |
| 2026-05-04 01:23 | 33.34340 | -84.62782 | 15901 ft | 371 kts | 155° |
| 2026-05-04 01:23 | 33.31970 | -84.61445 | 16257 ft | 385 kts | 156° |
| 2026-05-04 01:24 | 33.29474 | -84.60068 | 16693 ft | 397 kts | 156° |
| 2026-05-04 01:24 | 33.26980 | -84.58714 | 17324 ft | 401 kts | 157° |
| 2026-05-04 01:24 | 33.24419 | -84.57332 | 18007 ft | 405 kts | 157° |
| 2026-05-04 01:24 | 33.21822 | -84.55937 | 18629 ft | 410 kts | 158° |
| 2026-05-04 01:25 | 33.19226 | -84.54545 | 19296 ft | 414 kts | 157° |
| 2026-05-04 01:25 | 33.16596 | -84.53135 | 19944 ft | 417 kts | 157° |
| 2026-05-04 01:25 | 33.13925 | -84.51705 | 20563 ft | 421 kts | 157° |
| 2026-05-04 01:25 | 33.11214 | -84.50254 | 21111 ft | 426 kts | 158° |
| 2026-05-04 01:26 | 33.08518 | -84.48811 | 21732 ft | 428 kts | 158° |
| 2026-05-04 01:26 | 33.05790 | -84.47352 | 22238 ft | 433 kts | 158° |
| 2026-05-04 01:26 | 33.03030 | -84.45877 | 22768 ft | 437 kts | 157° |
| 2026-05-04 01:26 | 33.00223 | -84.44407 | 23343 ft | 440 kts | 159° |
| 2026-05-04 01:27 | 32.97374 | -84.43104 | 23847 ft | 442 kts | 164° |
| 2026-05-04 01:27 | 32.94364 | -84.42266 | 24363 ft | 442 kts | 173° |
| 2026-05-04 01:27 | 32.91317 | -84.41889 | 24929 ft | 442 kts | 179° |
| 2026-05-04 01:27 | 32.88203 | -84.41735 | 25398 ft | 445 kts | 181° |
| 2026-05-04 01:28 | 32.85077 | -84.41682 | 25906 ft | 447 kts | 182° |
| 2026-05-04 01:28 | 32.81937 | -84.41666 | 26428 ft | 449 kts | 182° |
| 2026-05-04 01:28 | 32.78812 | -84.41656 | 26900 ft | 451 kts | 182° |
| 2026-05-04 01:28 | 32.75662 | -84.41638 | 27310 ft | 455 kts | 182° |
| 2026-05-04 01:29 | 32.72468 | -84.41611 | 27761 ft | 458 kts | 182° |
| 2026-05-04 01:29 | 32.69301 | -84.41573 | 28204 ft | 460 kts | 182° |
| 2026-05-04 01:29 | 32.66065 | -84.41526 | 28629 ft | 463 kts | 182° |
| 2026-05-04 01:29 | 32.62837 | -84.41474 | 29062 ft | 465 kts | 182° |
| 2026-05-04 01:30 | 32.59568 | -84.41416 | 29541 ft | 466 kts | 182° |
| 2026-05-04 01:30 | 32.56277 | -84.41353 | 30199 ft | 462 kts | 182° |
| 2026-05-04 01:30 | 32.53106 | -84.41289 | 30819 ft | 458 kts | 183° |
| 2026-05-04 01:30 | 32.49900 | -84.41221 | 31465 ft | 453 kts | 183° |
| 2026-05-04 01:31 | 32.46764 | -84.41156 | 31985 ft | 450 kts | 184° |
| 2026-05-04 01:31 | 32.43608 | -84.41093 | 32390 ft | 450 kts | 184° |
| 2026-05-04 01:31 | 32.40463 | -84.41031 | 32739 ft | 451 kts | 184° |
| 2026-05-04 01:31 | 32.37312 | -84.40971 | 33077 ft | 452 kts | 184° |
| 2026-05-04 01:32 | 32.34134 | -84.40912 | 33116 ft | 456 kts | 184° |
| 2026-05-04 01:32 | 32.27868 | -84.40784 | 33110 ft | 446 kts | 184° |
| 2026-05-04 01:33 | 32.21650 | -84.40660 | 33112 ft | 448 kts | 184° |
| 2026-05-04 01:33 | 32.15405 | -84.40538 | 33102 ft | 448 kts | 184° |
| 2026-05-04 01:34 | 32.09134 | -84.40414 | 33114 ft | 446 kts | 184° |
| 2026-05-04 01:34 | 32.02891 | -84.40289 | 33114 ft | 446 kts | 184° |
| 2026-05-04 01:35 | 31.96664 | -84.40166 | 33110 ft | 447 kts | 185° |
| 2026-05-04 01:35 | 31.90435 | -84.40042 | 33109 ft | 446 kts | 185° |
| 2026-05-04 01:36 | 31.84237 | -84.39919 | 33113 ft | 447 kts | 185° |
| 2026-05-04 01:36 | 31.78020 | -84.39796 | 33108 ft | 446 kts | 185° |
| 2026-05-04 01:37 | 31.71789 | -84.39674 | 33109 ft | 446 kts | 185° |
| 2026-05-04 01:37 | 31.65588 | -84.39548 | 33112 ft | 443 kts | 185° |
| 2026-05-04 01:38 | 31.59421 | -84.39482 | 33115 ft | 444 kts | 186° |
| 2026-05-04 01:38 | 31.53234 | -84.39507 | 33113 ft | 442 kts | 187° |
| 2026-05-04 01:39 | 31.47070 | -84.39538 | 33113 ft | 441 kts | 186° |
| 2026-05-04 01:39 | 31.40905 | -84.39557 | 33112 ft | 443 kts | 186° |
| 2026-05-04 01:40 | 31.34720 | -84.39569 | 33109 ft | 441 kts | 186° |
| 2026-05-04 01:40 | 31.28589 | -84.39578 | 33114 ft | 439 kts | 186° |
| 2026-05-04 01:41 | 31.22437 | -84.39590 | 33110 ft | 442 kts | 186° |
| 2026-05-04 01:41 | 31.16269 | -84.39598 | 33111 ft | 440 kts | 187° |
| 2026-05-04 01:42 | 31.10132 | -84.39606 | 33105 ft | 439 kts | 187° |
| 2026-05-04 01:42 | 31.04005 | -84.39613 | 33108 ft | 440 kts | 187° |
| 2026-05-04 01:43 | 30.97920 | -84.39620 | 33113 ft | 439 kts | 187° |
| 2026-05-04 01:43 | 30.91812 | -84.39627 | 33112 ft | 436 kts | 187° |
| 2026-05-04 01:44 | 30.85742 | -84.39636 | 33113 ft | 437 kts | 187° |
| 2026-05-04 01:44 | 30.79665 | -84.39645 | 33112 ft | 436 kts | 187° |
| 2026-05-04 01:45 | 30.73573 | -84.39656 | 33115 ft | 436 kts | 187° |
| 2026-05-04 01:45 | 30.64464 | -84.39668 | 33114 ft | 433 kts | 188° |
| 2026-05-04 01:46 | 30.58388 | -84.39676 | 33113 ft | 434 kts | 188° |
| 2026-05-04 01:46 | 30.52343 | -84.39686 | 33113 ft | 436 kts | 188° |
| 2026-05-04 01:47 | 30.46260 | -84.39693 | 33115 ft | 434 kts | 188° |
| 2026-05-04 01:47 | 30.40208 | -84.39683 | 33114 ft | 436 kts | 187° |
| 2026-05-04 01:48 | 30.34098 | -84.38612 | 33115 ft | 454 kts | 169° |
| 2026-05-04 01:48 | 30.31188 | -84.37142 | 33114 ft | 467 kts | 159° |
| 2026-05-04 01:48 | 30.28427 | -84.35068 | 33112 ft | 477 kts | 151° |
| 2026-05-04 01:49 | 30.23192 | -84.30198 | 33112 ft | 482 kts | 147° |
| 2026-05-04 01:49 | 30.18104 | -84.25110 | 33113 ft | 483 kts | 147° |
| 2026-05-04 01:50 | 30.13053 | -84.20026 | 33111 ft | 479 kts | 147° |
| 2026-05-04 01:50 | 30.08057 | -84.15038 | 33112 ft | 479 kts | 147° |
| 2026-05-04 01:51 | 30.02977 | -84.10011 | 33111 ft | 478 kts | 148° |
| 2026-05-04 01:51 | 29.97920 | -84.05031 | 33106 ft | 479 kts | 148° |
| 2026-05-04 01:52 | 29.92854 | -84.00047 | 33102 ft | 479 kts | 148° |
| 2026-05-04 01:52 | 29.87787 | -83.95074 | 33100 ft | 480 kts | 148° |
| 2026-05-04 01:53 | 29.82654 | -83.90148 | 33096 ft | 475 kts | 152° |
| 2026-05-04 01:53 | 29.77178 | -83.86013 | 33106 ft | 466 kts | 159° |
| 2026-05-04 01:54 | 29.71538 | -83.82408 | 33105 ft | 466 kts | 161° |
| 2026-05-04 01:54 | 29.65784 | -83.78831 | 33100 ft | 466 kts | 161° |
| 2026-05-04 01:55 | 29.60134 | -83.75276 | 33093 ft | 464 kts | 161° |
| 2026-05-04 01:55 | 29.54471 | -83.71692 | 33097 ft | 469 kts | 160° |
| 2026-05-04 01:56 | 29.48778 | -83.68055 | 33095 ft | 467 kts | 160° |
| 2026-05-04 01:56 | 29.43122 | -83.64433 | 33096 ft | 465 kts | 160° |
| 2026-05-04 01:57 | 29.37449 | -83.60825 | 33096 ft | 466 kts | 161° |
| 2026-05-04 01:57 | 29.31641 | -83.57764 | 33089 ft | 451 kts | 170° |
| 2026-05-04 01:58 | 29.25682 | -83.55625 | 32830 ft | 445 kts | 174° |
| 2026-05-04 01:58 | 29.22716 | -83.54669 | 32379 ft | 440 kts | 174° |
| 2026-05-04 01:58 | 29.19772 | -83.53732 | 31786 ft | 439 kts | 174° |
| 2026-05-04 01:59 | 29.16835 | -83.52797 | 31062 ft | 442 kts | 174° |
| 2026-05-04 01:59 | 29.13864 | -83.51843 | 30377 ft | 443 kts | 173° |
| 2026-05-04 01:59 | 29.10884 | -83.50872 | 29899 ft | 441 kts | 173° |
| 2026-05-04 01:59 | 29.07939 | -83.49905 | 29362 ft | 444 kts | 173° |
| 2026-05-04 02:00 | 29.05003 | -83.48930 | 28821 ft | 440 kts | 173° |
| 2026-05-04 02:00 | 29.02070 | -83.47945 | 28282 ft | 435 kts | 172° |
| 2026-05-04 02:00 | 28.99179 | -83.46968 | 27760 ft | 431 kts | 172° |
| 2026-05-04 02:00 | 28.96327 | -83.45861 | 27247 ft | 431 kts | 168° |
| 2026-05-04 02:01 | 28.93577 | -83.44575 | 26728 ft | 430 kts | 165° |
| 2026-05-04 02:01 | 28.90855 | -83.43175 | 26204 ft | 427 kts | 163° |
| 2026-05-04 02:01 | 28.88155 | -83.41737 | 25668 ft | 424 kts | 163° |
| 2026-05-04 02:01 | 28.85514 | -83.40321 | 25142 ft | 420 kts | 163° |
| 2026-05-04 02:02 | 28.82861 | -83.38906 | 24617 ft | 416 kts | 163° |
| 2026-05-04 02:02 | 28.80256 | -83.37527 | 24099 ft | 412 kts | 163° |
| 2026-05-04 02:02 | 28.77688 | -83.36178 | 23585 ft | 408 kts | 163° |
| 2026-05-04 02:02 | 28.75113 | -83.34834 | 23062 ft | 404 kts | 164° |
| 2026-05-04 02:03 | 28.72552 | -83.33504 | 22552 ft | 400 kts | 164° |
| 2026-05-04 02:03 | 28.70006 | -83.32188 | 22050 ft | 396 kts | 164° |
| 2026-05-04 02:03 | 28.67535 | -83.30913 | 21542 ft | 393 kts | 164° |
| 2026-05-04 02:03 | 28.65043 | -83.29630 | 21032 ft | 389 kts | 164° |
| 2026-05-04 02:04 | 28.62602 | -83.28372 | 20524 ft | 385 kts | 164° |
| 2026-05-04 02:04 | 28.60155 | -83.27113 | 20018 ft | 382 kts | 164° |
| 2026-05-04 02:04 | 28.57746 | -83.25876 | 19513 ft | 379 kts | 164° |
| 2026-05-04 02:04 | 28.55346 | -83.24644 | 19002 ft | 375 kts | 163° |
| 2026-05-04 02:05 | 28.52998 | -83.23439 | 18514 ft | 372 kts | 164° |
| 2026-05-04 02:05 | 28.50651 | -83.22233 | 18010 ft | 369 kts | 164° |
| 2026-05-04 02:05 | 28.48323 | -83.21037 | 17506 ft | 366 kts | 164° |
| 2026-05-04 02:05 | 28.46010 | -83.19852 | 17021 ft | 363 kts | 163° |
| 2026-05-04 02:06 | 28.43694 | -83.18665 | 16492 ft | 361 kts | 163° |
| 2026-05-04 02:06 | 28.41400 | -83.17493 | 15958 ft | 360 kts | 163° |
| 2026-05-04 02:06 | 28.39146 | -83.16341 | 15456 ft | 358 kts | 163° |
| 2026-05-04 02:06 | 28.36855 | -83.15183 | 14943 ft | 357 kts | 163° |
| 2026-05-04 02:07 | 28.34591 | -83.14053 | 14445 ft | 359 kts | 163° |
| 2026-05-04 02:07 | 28.32303 | -83.12915 | 13941 ft | 357 kts | 162° |
| 2026-05-04 02:07 | 28.30045 | -83.11791 | 13456 ft | 355 kts | 162° |
| 2026-05-04 02:07 | 28.27811 | -83.10540 | 13040 ft | 355 kts | 154° |
| 2026-05-04 02:08 | 28.25798 | -83.08915 | 13008 ft | 358 kts | 146° |
| 2026-05-04 02:08 | 28.23882 | -83.07063 | 13001 ft | 365 kts | 143° |
| 2026-05-04 02:08 | 28.22003 | -83.05154 | 12763 ft | 360 kts | 143° |
| 2026-05-04 02:08 | 28.20108 | -83.03352 | 12490 ft | 348 kts | 149° |
| 2026-05-04 02:09 | 28.17973 | -83.02226 | 12216 ft | 326 kts | 173° |
| 2026-05-04 02:09 | 28.15779 | -83.01994 | 11947 ft | 311 kts | 186° |
| 2026-05-04 02:09 | 28.13637 | -83.02063 | 11676 ft | 303 kts | 187° |
| 2026-05-04 02:09 | 28.11547 | -83.02135 | 11409 ft | 298 kts | 186° |
| 2026-05-04 02:10 | 28.09470 | -83.02140 | 11131 ft | 293 kts | 185° |
| 2026-05-04 02:10 | 28.07454 | -83.02087 | 10884 ft | 288 kts | 184° |
| 2026-05-04 02:10 | 28.05465 | -83.02007 | 10665 ft | 281 kts | 182° |
| 2026-05-04 02:10 | 28.03533 | -83.01914 | 10445 ft | 276 kts | 183° |
| 2026-05-04 02:11 | 28.01620 | -83.01824 | 10224 ft | 271 kts | 183° |
| 2026-05-04 02:11 | 27.99732 | -83.01744 | 10003 ft | 272 kts | 183° |
| 2026-05-04 02:11 | 27.97824 | -83.01666 | 9782 ft | 274 kts | 183° |
| 2026-05-04 02:11 | 27.95926 | -83.01580 | 9556 ft | 270 kts | 182° |
| 2026-05-04 02:12 | 27.94058 | -83.01492 | 9344 ft | 271 kts | 182° |
| 2026-05-04 02:12 | 27.92156 | -83.01407 | 9115 ft | 269 kts | 181° |
| 2026-05-04 02:12 | 27.90291 | -83.01327 | 8903 ft | 269 kts | 181° |
| 2026-05-04 02:12 | 27.88427 | -83.01246 | 8692 ft | 267 kts | 181° |
| 2026-05-04 02:13 | 27.86567 | -83.01162 | 8475 ft | 267 kts | 180° |
| 2026-05-04 02:13 | 27.84700 | -83.01080 | 8255 ft | 265 kts | 180° |
| 2026-05-04 02:13 | 27.82866 | -83.00998 | 8039 ft | 264 kts | 180° |
| 2026-05-04 02:13 | 27.80990 | -83.00916 | 7823 ft | 273 kts | 179° |
| 2026-05-04 02:14 | 27.79114 | -83.00618 | 7602 ft | 276 kts | 164° |
| 2026-05-04 02:14 | 27.77436 | -82.99545 | 7383 ft | 276 kts | 138° |
| 2026-05-04 02:14 | 27.76120 | -82.97968 | 7169 ft | 274 kts | 130° |
| 2026-05-04 02:14 | 27.74883 | -82.96331 | 6948 ft | 271 kts | 129° |
| 2026-05-04 02:15 | 27.73648 | -82.94741 | 6732 ft | 273 kts | 131° |
| 2026-05-04 02:15 | 27.72373 | -82.93153 | 6507 ft | 268 kts | 131° |
| 2026-05-04 02:15 | 27.71125 | -82.91629 | 6293 ft | 266 kts | 131° |
| 2026-05-04 02:15 | 27.69858 | -82.90086 | 6073 ft | 265 kts | 130° |
| 2026-05-04 02:16 | 27.68596 | -82.88599 | 5852 ft | 264 kts | 132° |
| 2026-05-04 02:16 | 27.67291 | -82.87128 | 5635 ft | 264 kts | 133° |
| 2026-05-04 02:16 | 27.66000 | -82.85683 | 5411 ft | 262 kts | 132° |
| 2026-05-04 02:16 | 27.64697 | -82.84216 | 5181 ft | 261 kts | 132° |
| 2026-05-04 02:17 | 27.63426 | -82.82774 | 4969 ft | 262 kts | 131° |
| 2026-05-04 02:17 | 27.62133 | -82.81303 | 4744 ft | 260 kts | 132° |
| 2026-05-04 02:17 | 27.60859 | -82.79857 | 4527 ft | 258 kts | 133° |
| 2026-05-04 02:17 | 27.59595 | -82.78429 | 4310 ft | 257 kts | 132° |
| 2026-05-04 02:18 | 27.58328 | -82.76996 | 4096 ft | 255 kts | 132° |
| 2026-05-04 02:18 | 27.57099 | -82.75605 | 3888 ft | 250 kts | 132° |
| 2026-05-04 02:18 | 27.55882 | -82.74234 | 3713 ft | 243 kts | 132° |
| 2026-05-04 02:18 | 27.54699 | -82.72887 | 3532 ft | 237 kts | 130° |
| 2026-05-04 02:19 | 27.53582 | -82.71543 | 3349 ft | 231 kts | 130° |
| 2026-05-04 02:19 | 27.52472 | -82.70248 | 3155 ft | 228 kts | 130° |
| 2026-05-04 02:19 | 27.51375 | -82.68989 | 3003 ft | 222 kts | 130° |
| 2026-05-04 02:19 | 27.50290 | -82.67760 | 2802 ft | 219 kts | 131° |
| 2026-05-04 02:20 | 27.49220 | -82.66554 | 2519 ft | 221 kts | 131° |
| 2026-05-04 02:20 | 27.48126 | -82.65302 | 2216 ft | 223 kts | 130° |
| 2026-05-04 02:20 | 27.47052 | -82.64066 | 1921 ft | 217 kts | 130° |
| 2026-05-04 02:20 | 27.46022 | -82.62899 | 1644 ft | 202 kts | 130° |
| 2026-05-04 02:21 | 27.45075 | -82.61821 | 1378 ft | 189 kts | 130° |
| 2026-05-04 02:21 | 27.44178 | -82.60792 | 1146 ft | 175 kts | 130° |
| 2026-05-04 02:21 | 27.43353 | -82.59853 | 925 ft | 162 kts | 131° |
| 2026-05-04 02:21 | 27.42590 | -82.58974 | 707 ft | 151 kts | 131° |
| 2026-05-04 02:22 | 27.41847 | -82.58141 | 518 ft | 150 kts | 133° |
| 2026-05-04 02:22 | 27.41121 | -82.57295 | 321 ft | 150 kts | 131° |
| 2026-05-04 02:22 | 27.40377 | -82.56471 | 127 ft | 149 kts | 134° |
| 2026-05-04 02:22 | 27.39689 | -82.55679 | 37 ft | 121 kts | 135° |
| 2026-05-04 02:23 | 27.39332 | -82.55269 | 36 ft | 29 kts | 134° |
| 2026-05-04 02:23 | 27.39215 | -82.55155 | 36 ft | 22 kts | 163° |
| 2026-05-04 02:23 | 27.39117 | -82.55254 | 36 ft | 21 kts | 258° |
| 2026-05-04 02:23 | 27.39118 | -82.55412 | 37 ft | 18 kts | 258° |
| 2026-05-04 02:24 | 27.39037 | -82.55509 | 36 ft | 14 kts | 212° |
| 2026-05-04 02:24 | 27.38994 | -82.55524 | 36 ft | 5 kts | 176° |
| 2026-05-04 02:24 | 27.38968 | -82.55510 | 36 ft | 1 kts | 130° |
| 2026-05-04 02:24 | 27.38961 | -82.55492 | 36 ft | 3 kts | 98° |
| 2026-05-04 02:25 | 27.38959 | -82.55470 | 36 ft | 3 kts | 97° |
| 2026-05-04 02:25 | 27.38957 | -82.55454 | 36 ft | 1 kts | 99° |
| 2026-05-04 02:25 | 27.38956 | -82.55441 | 36 ft | 1 kts | 98° |
| 2026-05-04 02:25 | 27.38955 | -82.55437 | 36 ft | 0 kts | 99° |
| 2026-05-04 02:26 | 27.38955 | -82.55435 | 36 ft | 0 kts | 99° |